Jebel Ali — 9HA2984 — position and weather

sailwx.info

Track history (hours):
 
Tides and Currents Weather Stations Pressure Air Temp Water Temp Dewpoint Dewpoint Depression Visibility Wind Speed Wind Dir Waves Ship Positions

Jebel Ali

Last reported at 2018-Apr-07 19:16 UTC. Time now 2018-Apr-19 11:24 UTC.
Position N 31°26' E 032°19'.
Warning: this ship's position is 11 days out of date.

Length 366 m; draft 11.3 m.

Type: Ship (hazmat cat A). MMSI: 229007000.

Date/timePositionNaut miles runAvg speedWind from/ knotsBaromVisibWave heightAir tempDewpointWater temp
2018-Apr-07 19:16N 31°26' E 032°19'1 2.4
2018-Apr-07 19:01N 31°26' E 032°19'3014.2
2018-Apr-07 16:54N 31°46' E 031°53'717.1
2018-Apr-07 16:30N 31°48' E 031°46'  
2018-Apr-05 09:07N 36°35' E 013°48'1 9.3
2018-Apr-05 09:00N 36°35' E 013°46'816.3
2018-Apr-05 08:30N 36°38' E 013°37'816.4
2018-Apr-05 08:00N 36°41' E 013°27'816.5
2018-Apr-05 07:30N 36°43' E 013°18'58416.7
2018-Apr-03 20:31N 36°56' E 001°09'2016.8
2018-Apr-03 19:20N 36°50' E 000°45'28218.1
2018-Apr-03 03:48N 36°01' W 004°60'518.1
2018-Apr-03 03:30N 35°60' W 005°06'918.5
2018-Apr-03 03:00N 35°59' W 005°17'917.4
2018-Apr-03 02:30N 35°57' W 005°28'86616.8
2018-Mar-31 22:58N 37°28' W 023°23'816.9
2018-Mar-31 22:30N 37°28' W 023°33'917.1
2018-Mar-31 22:00N 37°29' W 023°43'816.7
2018-Mar-31 21:30N 37°29' W 023°54'816.6
2018-Mar-31 21:00N 37°30' W 024°04'816.8
2018-Mar-31 20:30N 37°31' W 024°15'816.7
2018-Mar-31 20:00N 37°31' W 024°25'816.7
2018-Mar-31 19:30N 37°32' W 024°36'816.4
2018-Mar-31 19:01N 37°32' W 024°46'816.4
2018-Mar-31 18:30N 37°32' W 024°57'1016.8
2018-Mar-31 17:56N 37°33' W 025°09'717.0
2018-Mar-31 17:30N 37°33' W 025°18'917.0
2018-Mar-31 17:00N 37°33' W 025°29'917.1
2018-Mar-31 16:30N 37°33' W 025°39'816.6
2018-Mar-31 16:00N 37°33' W 025°50'7417.2
2018-Mar-31 11:40N 37°32' W 027°24'317.4
2018-Mar-31 11:30N 37°32' W 027°27'917.5
2018-Mar-31 10:59N 37°32' W 027°39'817.0
2018-Mar-31 10:30N 37°31' W 027°49'917.8
2018-Mar-31 10:01N 37°31' W 028°00'918.5
2018-Mar-31 09:30N 37°30' W 028°12'918.0
2018-Mar-31 09:00N 37°30' W 028°23'917.2
2018-Mar-31 08:30N 37°30' W 028°34'917.2
2018-Mar-31 08:00N 37°30' W 028°45'917.2
2018-Mar-31 07:30N 37°29' W 028°56'917.6
2018-Mar-31 07:00N 37°29' W 029°07'3317.2
2018-Mar-31 05:04N 37°26' W 029°49'216.7
2018-Mar-31 04:58N 37°26' W 029°51'  
Track history (hours):
 
Tides and Currents Weather Stations Pressure Air Temp Water Temp Dewpoint Dewpoint Depression Visibility Wind Speed Wind Dir Waves Ship Positions

Jebel Ali

Last reported at 2018-Apr-07 19:16 UTC. Time now 2018-Apr-19 11:24 UTC.
Position N 31°26' E 032°19'.
Warning: this ship's position is 11 days out of date.

Length 366 m; draft 11.3 m.

Type: Ship (hazmat cat A). MMSI: 229007000.

Date/timePositionNaut miles runAvg speedWind from/ knotsBaromVisibWave heightAir tempDewpointWater temp
2018-Apr-07 19:16N 31°26' E 032°19'1 2.4
2018-Apr-07 19:01N 31°26' E 032°19'3014.2
2018-Apr-07 16:54N 31°46' E 031°53'717.1
2018-Apr-07 16:30N 31°48' E 031°46'  
2018-Apr-05 09:07N 36°35' E 013°48'1 9.3
2018-Apr-05 09:00N 36°35' E 013°46'816.3
2018-Apr-05 08:30N 36°38' E 013°37'816.4
2018-Apr-05 08:00N 36°41' E 013°27'816.5
2018-Apr-05 07:30N 36°43' E 013°18'58416.7
2018-Apr-03 20:31N 36°56' E 001°09'2016.8
2018-Apr-03 19:20N 36°50' E 000°45'28218.1
2018-Apr-03 03:48N 36°01' W 004°60'518.1
2018-Apr-03 03:30N 35°60' W 005°06'918.5
2018-Apr-03 03:00N 35°59' W 005°17'917.4
2018-Apr-03 02:30N 35°57' W 005°28'86616.8
2018-Mar-31 22:58N 37°28' W 023°23'816.9
2018-Mar-31 22:30N 37°28' W 023°33'917.1
2018-Mar-31 22:00N 37°29' W 023°43'816.7
2018-Mar-31 21:30N 37°29' W 023°54'816.6
2018-Mar-31 21:00N 37°30' W 024°04'816.8
2018-Mar-31 20:30N 37°31' W 024°15'816.7
2018-Mar-31 20:00N 37°31' W 024°25'816.7
2018-Mar-31 19:30N 37°32' W 024°36'816.4
2018-Mar-31 19:01N 37°32' W 024°46'816.4
2018-Mar-31 18:30N 37°32' W 024°57'1016.8
2018-Mar-31 17:56N 37°33' W 025°09'717.0
2018-Mar-31 17:30N 37°33' W 025°18'917.0
2018-Mar-31 17:00N 37°33' W 025°29'917.1
2018-Mar-31 16:30N 37°33' W 025°39'816.6
2018-Mar-31 16:00N 37°33' W 025°50'7417.2
2018-Mar-31 11:40N 37°32' W 027°24'317.4
2018-Mar-31 11:30N 37°32' W 027°27'917.5
2018-Mar-31 10:59N 37°32' W 027°39'817.0
2018-Mar-31 10:30N 37°31' W 027°49'917.8
2018-Mar-31 10:01N 37°31' W 028°00'918.5
2018-Mar-31 09:30N 37°30' W 028°12'918.0
2018-Mar-31 09:00N 37°30' W 028°23'917.2
2018-Mar-31 08:30N 37°30' W 028°34'917.2
2018-Mar-31 08:00N 37°30' W 028°45'917.2
2018-Mar-31 07:30N 37°29' W 028°56'917.6
2018-Mar-31 07:00N 37°29' W 029°07'3317.2
2018-Mar-31 05:04N 37°26' W 029°49'216.7
2018-Mar-31 04:58N 37°26' W 029°51'  

Dump ship's entire track history